Time;durP1;ratioP1;P1;durP2;ratioP2;P2;SDS_P1;SDS_P2;PMS_P1;PMS_P2;Temp;Humidity;BMP_temperature;BMP_pressure;BME280_temperature;BME280_humidity;BME280_pressure;Samples;Min_cycle;Max_cycle;Signal;HPM_P1;HPM_P2
2023/03/23 00:02:32;;;;;;;9.45;5.68;;;;;;;9.48;nan;-24081.75;5011905;28;20182;-72
2023/03/23 00:05:00;;;;;;;8.87;5.67;;;;;;;9.79;nan;-24090.53;5011791;28;20176;-72
2023/03/23 00:07:27;;;;;;;9.50;5.72;;;;;;;9.79;nan;-24090.38;5011802;28;20639;-73
2023/03/23 00:09:53;;;;;;;11.47;5.37;;;;;;;9.75;nan;-24089.53;5026666;28;20754;-73
2023/03/23 00:12:33;;;;;;;11.63;6.20;;;;;;;9.46;nan;-24081.34;5012063;28;20176;-73
2023/03/23 00:15:04;;;;;;;14.03;6.47;;;;;;;9.80;nan;-24090.81;5012341;28;20624;-73
2023/03/23 00:17:32;;;;;;;9.77;5.33;;;;;;;9.98;nan;-24095.88;5011561;28;20208;-73
2023/03/23 00:20:00;;;;;;;10.20;6.00;;;;;;;9.68;nan;-24087.41;5009676;28;20243;-72
2023/03/23 00:22:27;;;;;;;10.67;6.60;;;;;;;9.55;nan;-24083.75;5040985;28;20192;-73
2023/03/23 00:24:52;;;;;;;9.40;5.30;;;;;;;9.51;nan;-24082.75;5015686;28;20191;-72
2023/03/23 00:27:18;;;;;;;12.55;7.22;;;;;;;9.73;nan;-24088.81;5014340;28;20234;-72
2023/03/23 00:29:45;;;;;;;12.73;6.38;;;;;;;9.28;nan;-24076.38;5014173;28;20246;-73
2023/03/23 00:32:16;;;;;;;8.70;5.70;;;;;;;9.68;nan;-24087.41;5015703;28;20180;-73
2023/03/23 00:34:43;;;;;;;11.73;6.67;;;;;;;9.38;nan;-24079.06;5014637;28;20267;-72
2023/03/23 00:37:10;;;;;;;16.53;7.20;;;;;;;9.27;nan;-24076.09;5016259;28;20223;-72
2023/03/23 00:39:37;;;;;;;14.97;6.80;;;;;;;9.53;nan;-24083.16;5052375;28;20184;-74
2023/03/23 00:42:03;;;;;;;15.40;6.43;;;;;;;9.62;nan;-24085.84;5021168;28;20188;-72
2023/03/23 00:44:31;;;;;;;11.30;6.40;;;;;;;9.55;nan;-24083.88;5017163;28;20596;-73
2023/03/23 00:46:57;;;;;;;13.17;6.37;;;;;;;9.49;nan;-24082.03;5016238;28;20267;-73
2023/03/23 00:49:25;;;;;;;12.73;6.77;;;;;;;9.53;nan;-24083.31;5014696;28;20191;-74
2023/03/23 00:51:54;;;;;;;14.57;6.83;;;;;;;9.42;nan;-24080.06;5015499;28;20547;-72
2023/03/23 00:54:21;;;;;;;12.33;6.33;;;;;;;9.46;nan;-24081.19;5015235;28;20229;-73
2023/03/23 00:56:47;;;;;;;15.57;7.43;;;;;;;9.36;nan;-24078.38;5014955;28;20208;-73
2023/03/23 00:59:12;;;;;;;18.90;7.03;;;;;;;9.36;nan;-24078.50;5015004;28;20220;-72
2023/03/23 01:01:38;;;;;;;12.13;6.80;;;;;;;9.28;nan;-24076.38;5047148;28;20222;-73
2023/03/23 01:04:04;;;;;;;11.10;6.43;;;;;;;9.22;nan;-24074.56;5014772;28;20183;-73
2023/03/23 01:06:31;;;;;;;10.03;6.17;;;;;;;8.95;nan;-24067.06;5047293;28;20359;-73
2023/03/23 01:08:58;;;;;;;13.37;7.20;;;;;;;8.88;nan;-24065.22;5013970;28;20191;-73
2023/03/23 01:11:25;;;;;;;15.97;7.37;;;;;;;9.12;nan;-24071.88;5014960;28;20184;-72
2023/03/23 01:13:51;;;;;;;10.03;5.70;;;;;;;9.11;nan;-24071.59;5014630;28;20186;-73
2023/03/23 01:16:17;;;;;;;13.17;6.77;;;;;;;8.47;nan;-24053.47;5015043;28;20196;-74
2023/03/23 01:18:42;;;;;;;9.43;5.33;;;;;;;8.68;nan;-24059.56;5013458;28;20183;-73
2023/03/23 01:21:11;;;;;;;15.73;6.73;;;;;;;8.70;nan;-24060.13;5014827;28;20164;-73
2023/03/23 01:23:37;;;;;;;8.47;5.40;;;;;;;8.61;nan;-24057.44;5014750;28;20172;-71
2023/03/23 01:26:08;;;;;;;12.57;6.20;;;;;;;8.55;nan;-24055.88;5014834;28;20207;-72
2023/03/23 01:28:35;;;;;;;14.03;5.77;;;;;;;8.30;nan;-24048.94;5014404;28;20237;-72
2023/03/23 01:31:11;;;;;;;9.57;5.77;;;;;;;8.49;nan;-24054.19;5014297;28;20176;-72
2023/03/23 01:33:38;;;;;;;14.00;6.37;;;;;;;8.41;nan;-24052.06;5014208;28;20187;-71
2023/03/23 01:36:06;;;;;;;15.80;6.27;;;;;;;8.19;nan;-24045.69;5012014;28;20290;-72
2023/03/23 01:38:33;;;;;;;13.27;6.33;;;;;;;8.21;nan;-24046.41;5007446;28;20192;-73
2023/03/23 01:40:59;;;;;;;11.33;6.53;;;;;;;8.15;nan;-24044.69;5013995;28;20184;-73
2023/03/23 01:43:24;;;;;;;16.20;6.00;;;;;;;8.09;nan;-24042.84;5013684;28;20230;-73
2023/03/23 01:45:50;;;;;;;15.17;6.03;;;;;;;8.25;nan;-24047.53;5013883;28;20678;-72
2023/03/23 01:48:29;;;;;;;10.43;6.07;;;;;;;8.20;nan;-24046.09;5015020;28;20681;-72
2023/03/23 01:51:06;;;;;;;10.10;6.00;;;;;;;7.89;nan;-24037.31;5015059;28;20203;-72
2023/03/23 01:53:42;;;;;;;15.50;7.23;;;;;;;7.95;nan;-24039.03;5015615;28;20172;-73
2023/03/23 01:56:11;;;;;;;13.77;6.57;;;;;;;7.89;nan;-24037.47;5013187;28;20230;-73
2023/03/23 01:58:38;;;;;;;14.93;6.73;;;;;;;8.17;nan;-24045.13;5013184;28;20237;-72
2023/03/23 02:01:13;;;;;;;27.07;6.40;;;;;;;8.14;nan;-24044.28;5013624;28;20222;-73
2023/03/23 02:03:43;;;;;;;10.63;5.70;;;;;;;8.27;nan;-24048.09;5013700;28;20175;-73
2023/03/23 02:06:09;;;;;;;13.70;5.50;;;;;;;8.21;nan;-24046.41;5011948;28;20180;-73
2023/03/23 02:08:35;;;;;;;11.13;7.03;;;;;;;8.25;nan;-24047.53;5012506;28;20176;-73
2023/03/23 02:11:01;;;;;;;9.60;5.73;;;;;;;8.00;nan;-24040.59;5013783;28;20180;-73
2023/03/23 02:13:28;;;;;;;14.47;6.10;;;;;;;7.97;nan;-24039.72;5014197;28;20233;-72
2023/03/23 02:16:21;;;;;;;12.60;5.47;;;;;;;8.19;nan;-24045.69;5010105;28;20208;-72
2023/03/23 02:19:13;;;;;;;13.93;7.20;;;;;;;7.72;nan;-24032.66;5013689;28;20183;-72
2023/03/23 02:21:44;;;;;;;14.10;6.23;;;;;;;7.74;nan;-24033.22;5014070;28;20169;-73
2023/03/23 02:24:35;;;;;;;10.50;5.73;;;;;;;7.91;nan;-24037.88;5013868;28;20212;-72
2023/03/23 02:27:34;;;;;;;18.27;7.00;;;;;;;7.80;nan;-24034.91;5013532;28;20623;-73
2023/03/23 02:31:00;;;;;;;9.57;5.30;;;;;;;7.95;nan;-24039.03;5021397;28;20636;-72
2023/03/23 02:33:37;;;;;;;9.20;5.53;;;;;;;7.99;nan;-24040.16;4996902;28;20753;-74
2023/03/23 02:36:30;;;;;;;11.73;6.30;;;;;;;7.87;nan;-24036.91;5013952;28;20289;-74
2023/03/23 02:39:05;;;;;;;10.63;6.37;;;;;;;8.05;nan;-24041.72;5013698;28;20172;-72
2023/03/23 02:41:36;;;;;;;10.93;6.00;;;;;;;7.68;nan;-24031.38;5027783;28;20669;-73
2023/03/23 02:44:03;;;;;;;11.10;6.80;;;;;;;7.97;nan;-24039.72;5012046;28;20190;-73
2023/03/23 02:46:29;;;;;;;10.80;6.17;;;;;;;7.72;nan;-24032.50;5011375;28;20176;-73
2023/03/23 02:48:57;;;;;;;19.80;7.87;;;;;;;7.85;nan;-24036.34;5016247;28;20176;-73
2023/03/23 02:51:25;;;;;;;13.83;6.53;;;;;;;7.75;nan;-24033.38;5012029;28;20602;-73
2023/03/23 02:53:53;;;;;;;12.80;5.63;;;;;;;7.75;nan;-24033.50;5013317;28;20175;-73
2023/03/23 02:56:20;;;;;;;10.27;5.93;;;;;;;7.72;nan;-24032.66;5012997;28;20678;-73
2023/03/23 02:58:46;;;;;;;12.60;6.50;;;;;;;7.47;nan;-24025.72;5013774;28;20215;-71
2023/03/23 03:01:17;;;;;;;13.90;6.97;;;;;;;7.81;nan;-24035.22;5013162;28;20180;-73
2023/03/23 03:03:42;;;;;;;12.53;6.90;;;;;;;8.10;nan;-24043.13;5013057;28;20677;-71
2023/03/23 03:06:32;;;;;;;12.23;6.30;;;;;;;8.06;nan;-24042.16;5011471;28;20180;-72
2023/03/23 03:09:19;;;;;;;9.57;6.03;;;;;;;7.91;nan;-24037.88;5027705;28;20188;-73
2023/03/23 03:11:50;;;;;;;10.90;5.60;;;;;;;7.59;nan;-24028.97;5012831;28;20168;-72
2023/03/23 03:14:37;;;;;;;13.17;6.23;;;;;;;7.43;nan;-24024.56;5012759;28;20206;-73
2023/03/23 03:17:20;;;;;;;12.77;5.20;;;;;;;7.65;nan;-24030.66;5011065;28;20187;-75
2023/03/23 03:19:50;;;;;;;11.40;5.53;;;;;;;7.73;nan;-24032.78;5012588;28;20203;-72
2023/03/23 03:22:17;;;;;;;12.03;5.13;;;;;;;7.54;nan;-24027.69;5012564;28;20202;-74
2023/03/23 03:24:44;;;;;;;11.50;5.50;;;;;;;7.27;nan;-24020.03;5012540;28;20215;-72
2023/03/23 03:27:16;;;;;;;9.57;5.60;;;;;;;7.02;nan;-24013.09;5012769;28;20173;-74
2023/03/23 03:29:45;;;;;;;8.90;5.17;;;;;;;7.04;nan;-24013.66;5007761;28;20270;-73
2023/03/23 03:32:18;;;;;;;8.97;4.80;;;;;;;6.94;nan;-24010.81;5012574;28;20673;-72
2023/03/23 03:34:44;;;;;;;11.17;4.90;;;;;;;7.02;nan;-24012.94;5012289;28;20199;-72
2023/03/23 03:37:11;;;;;;;10.33;5.20;;;;;;;7.38;nan;-24023.16;5012160;28;20258;-73
2023/03/23 03:39:37;;;;;;;9.43;5.07;;;;;;;7.07;nan;-24014.38;5012225;28;20176;-73
2023/03/23 03:42:04;;;;;;;9.47;5.10;;;;;;;6.96;nan;-24011.38;5012296;28;20172;-71
2023/03/23 03:44:30;;;;;;;10.10;5.27;;;;;;;7.02;nan;-24012.94;5012236;28;20207;-73
2023/03/23 03:46:56;;;;;;;6.33;4.70;;;;;;;6.95;nan;-24010.97;5012251;28;20176;-73
2023/03/23 03:49:22;;;;;;;12.37;5.80;;;;;;;6.99;nan;-24012.09;5014434;28;20234;-72
2023/03/23 03:51:48;;;;;;;8.97;4.93;;;;;;;6.77;nan;-24006.00;5012568;28;20183;-73
2023/03/23 03:54:13;;;;;;;14.17;5.30;;;;;;;6.46;nan;-23997.34;5011875;28;20180;-73
2023/03/23 03:56:42;;;;;;;8.90;4.80;;;;;;;6.68;nan;-24003.44;5011711;28;20673;-73
2023/03/23 03:59:09;;;;;;;7.10;4.70;;;;;;;6.55;nan;-23999.75;5010784;28;20694;-72
2023/03/23 04:01:37;;;;;;;10.27;5.23;;;;;;;6.86;nan;-24008.56;5012153;28;20602;-73
2023/03/23 04:04:03;;;;;;;10.13;5.63;;;;;;;6.56;nan;-24000.19;5011945;28;20199;-75
2023/03/23 04:06:28;;;;;;;8.73;5.63;;;;;;;5.69;nan;-23975.75;5012238;28;20620;-73
2023/03/23 04:08:56;;;;;;;11.00;5.90;;;;;;;5.95;nan;-23983.00;5005460;28;20624;-73
2023/03/23 04:11:21;;;;;;;10.07;4.63;;;;;;;6.59;nan;-24000.88;5011614;28;20214;-72
2023/03/23 04:13:47;;;;;;;8.00;4.57;;;;;;;6.44;nan;-23996.63;5012030;28;20267;-72
2023/03/23 04:16:12;;;;;;;10.97;5.27;;;;;;;6.84;nan;-24007.84;5011591;28;20639;-74
2023/03/23 04:18:38;;;;;;;8.37;4.83;;;;;;;6.97;nan;-24011.66;5011711;28;20211;-74
2023/03/23 04:21:07;;;;;;;12.63;5.83;;;;;;;6.91;nan;-24009.97;5011961;28;20604;-73
2023/03/23 04:23:35;;;;;;;13.43;5.57;;;;;;;7.00;nan;-24012.53;5012039;28;20255;-72
2023/03/23 04:26:03;;;;;;;9.70;5.50;;;;;;;7.06;nan;-24014.09;4999153;28;20191;-73
2023/03/23 04:28:29;;;;;;;7.60;4.57;;;;;;;6.91;nan;-24009.97;4998041;28;20651;-72
2023/03/23 04:30:55;;;;;;;7.53;4.77;;;;;;;6.75;nan;-24005.28;4997549;28;20220;-73
2023/03/23 04:33:26;;;;;;;11.50;5.40;;;;;;;6.27;nan;-23991.94;4997350;28;20184;-73
2023/03/23 04:35:56;;;;;;;9.73;5.00;;;;;;;6.79;nan;-24006.44;4997953;28;20208;-72
2023/03/23 04:38:24;;;;;;;9.87;4.70;;;;;;;6.88;nan;-24009.13;4997179;28;20184;-73
2023/03/23 04:40:51;;;;;;;10.60;5.33;;;;;;;6.91;nan;-24009.97;5011396;28;20230;-72
2023/03/23 04:43:22;;;;;;;8.87;4.83;;;;;;;7.01;nan;-24012.81;4998361;28;20225;-72
2023/03/23 04:45:55;;;;;;;13.03;5.30;;;;;;;6.94;nan;-24010.81;4997712;28;20179;-73
2023/03/23 04:48:24;;;;;;;9.60;5.07;;;;;;;6.73;nan;-24004.88;5003397;28;20180;-72
2023/03/23 04:50:50;;;;;;;9.97;4.77;;;;;;;7.00;nan;-24012.53;4999892;28;20246;-72
2023/03/23 04:53:17;;;;;;;7.70;4.00;;;;;;;6.68;nan;-24003.44;4998404;28;21105;-73
2023/03/23 04:55:43;;;;;;;8.77;4.80;;;;;;;7.07;nan;-24014.38;5028422;28;20220;-71
2023/03/23 04:58:09;;;;;;;8.77;4.53;;;;;;;6.36;nan;-23994.34;4998459;28;20612;-72
2023/03/23 05:00:36;;;;;;;9.97;4.60;;;;;;;7.24;nan;-24019.03;4998313;28;20732;-74
2023/03/23 05:03:02;;;;;;;8.77;4.90;;;;;;;6.95;nan;-24010.97;4997565;28;20197;-74
2023/03/23 05:05:31;;;;;;;8.13;4.93;;;;;;;7.21;nan;-24018.19;4997699;28;20267;-73
2023/03/23 05:07:57;;;;;;;8.57;4.57;;;;;;;7.04;nan;-24013.66;4996286;28;20193;-72
2023/03/23 05:10:23;;;;;;;8.00;4.97;;;;;;;7.48;nan;-24025.84;4999322;28;20631;-72
2023/03/23 05:12:49;;;;;;;9.23;4.57;;;;;;;7.32;nan;-24021.31;5000016;28;20207;-72
2023/03/23 05:15:16;;;;;;;11.33;5.07;;;;;;;6.73;nan;-24004.88;5000454;28;20201;-74
2023/03/23 05:17:45;;;;;;;10.87;5.80;;;;;;;7.17;nan;-24017.06;4997172;28;20204;-72
2023/03/23 05:20:17;;;;;;;9.67;5.00;;;;;;;7.01;nan;-24012.81;4997769;28;20256;-71
2023/03/23 05:22:44;;;;;;;8.87;4.97;;;;;;;7.54;nan;-24027.69;5002045;28;20678;-70
2023/03/23 05:25:10;;;;;;;9.50;5.03;;;;;;;7.61;nan;-24029.53;5012756;28;20207;-75
2023/03/23 05:27:42;;;;;;;11.20;5.30;;;;;;;7.71;nan;-24032.38;5007429;28;20220;-71
2023/03/23 05:30:08;;;;;;;13.40;6.37;;;;;;;7.47;nan;-24025.72;5013709;28;20165;-72
2023/03/23 05:32:33;;;;;;;8.83;4.53;;;;;;;7.51;nan;-24026.69;5045323;28;20176;-72
2023/03/23 05:35:00;;;;;;;9.83;5.47;;;;;;;7.82;nan;-24035.47;5013548;28;20770;-72
2023/03/23 05:37:28;;;;;;;9.33;4.93;;;;;;;7.85;nan;-24036.34;5013610;28;20195;-72
2023/03/23 05:39:55;;;;;;;9.80;5.57;;;;;;;7.87;nan;-24036.75;5014017;28;20172;-73
2023/03/23 05:42:24;;;;;;;15.53;6.10;;;;;;;7.79;nan;-24034.50;5013463;28;20647;-72
2023/03/23 05:44:50;;;;;;;15.20;5.20;;;;;;;7.68;nan;-24031.53;5013480;28;20191;-72
2023/03/23 05:47:16;;;;;;;13.37;5.63;;;;;;;7.83;nan;-24035.78;5013352;28;20638;-72
2023/03/23 05:49:42;;;;;;;9.47;5.30;;;;;;;8.17;nan;-24045.13;5015012;28;20184;-73
2023/03/23 05:52:10;;;;;;;13.53;6.90;;;;;;;7.94;nan;-24038.88;5012262;28;20729;-73
2023/03/23 05:54:36;;;;;;;10.20;5.37;;;;;;;8.03;nan;-24041.28;5007452;28;20184;-73
2023/03/23 05:57:03;;;;;;;9.30;5.53;;;;;;;8.10;nan;-24043.13;5011481;28;20207;-74
2023/03/23 05:59:29;;;;;;;10.63;5.23;;;;;;;8.00;nan;-24040.44;5013398;28;20183;-72
2023/03/23 06:01:54;;;;;;;17.27;6.50;;;;;;;8.12;nan;-24043.69;5013215;28;20168;-73
2023/03/23 06:04:24;;;;;;;11.97;5.30;;;;;;;8.28;nan;-24048.22;5015770;28;20179;-74
2023/03/23 06:06:51;;;;;;;11.50;5.87;;;;;;;8.41;nan;-24051.91;5025398;28;20594;-73
2023/03/23 06:09:18;;;;;;;12.47;5.17;;;;;;;8.13;nan;-24044.00;5028333;28;20188;-73
2023/03/23 06:11:43;;;;;;;22.40;8.03;;;;;;;8.21;nan;-24046.41;5028592;28;20249;-73
2023/03/23 06:14:09;;;;;;;10.80;5.97;;;;;;;7.91;nan;-24037.88;5029044;28;20183;-73
2023/03/23 06:16:34;;;;;;;12.63;6.23;;;;;;;7.84;nan;-24035.91;5011188;28;20218;-73
2023/03/23 06:19:00;;;;;;;8.93;5.83;;;;;;;8.03;nan;-24041.28;5029495;28;20180;-75
2023/03/23 06:21:26;;;;;;;13.90;6.00;;;;;;;8.45;nan;-24052.91;5014176;28;20203;-74
2023/03/23 06:23:52;;;;;;;11.83;6.03;;;;;;;8.68;nan;-24059.41;5014536;28;20195;-73
2023/03/23 06:26:19;;;;;;;11.53;6.50;;;;;;;8.92;nan;-24066.22;5013809;28;20176;-73
2023/03/23 06:28:45;;;;;;;12.47;6.27;;;;;;;8.84;nan;-24063.94;5012955;28;20180;-73
2023/03/23 06:31:11;;;;;;;16.33;6.73;;;;;;;9.05;nan;-24069.75;5028561;28;20176;-74
2023/03/23 06:33:37;;;;;;;12.97;6.87;;;;;;;9.67;nan;-24087.13;5013747;28;20701;-72
2023/03/23 06:36:04;;;;;;;12.57;6.43;;;;;;;9.86;nan;-24092.50;5012383;28;20223;-75
2023/03/23 06:38:30;;;;;;;13.73;5.55;;;;;;;9.81;nan;-24091.09;5012372;28;20176;-74
2023/03/23 06:40:56;;;;;;;13.00;5.70;;;;;;;10.20;nan;-24101.97;5013409;28;20279;-74
2023/03/23 06:43:22;;;;;;;12.68;6.38;;;;;;;10.16;nan;-24100.84;5012417;28;20183;-73
2023/03/23 06:45:48;;;;;;;11.18;5.60;;;;;;;10.25;nan;-24103.38;5014567;28;20184;-74
2023/03/23 06:48:14;;;;;;;15.40;5.82;;;;;;;10.34;nan;-24105.78;5013270;28;20172;-74
2023/03/23 06:50:43;;;;;;;11.82;5.93;;;;;;;10.55;nan;-24111.84;5014617;28;20643;-75
2023/03/23 06:53:09;;;;;;;14.10;6.72;;;;;;;10.42;nan;-24108.03;5012222;28;20191;-74
2023/03/23 06:55:34;;;;;;;9.57;5.40;;;;;;;10.37;nan;-24106.63;5013160;28;20168;-74
2023/03/23 06:58:01;;;;;;;13.88;6.82;;;;;;;10.16;nan;-24100.97;5013215;28;20227;-73
2023/03/23 07:00:26;;;;;;;12.90;6.22;;;;;;;10.04;nan;-24097.44;5009035;28;20190;-73
2023/03/23 07:02:52;;;;;;;16.65;6.78;;;;;;;10.15;nan;-24100.53;5026224;28;20184;-74
2023/03/23 07:05:18;;;;;;;13.18;6.55;;;;;;;10.04;nan;-24097.44;5012525;28;20607;-73
2023/03/23 07:07:44;;;;;;;17.52;7.78;;;;;;;10.34;nan;-24105.91;5011332;28;20180;-75
2023/03/23 07:10:11;;;;;;;14.18;8.05;;;;;;;9.68;nan;-24087.56;5011281;28;20191;-73
2023/03/23 07:12:36;;;;;;;15.35;8.38;;;;;;;9.96;nan;-24095.31;5011570;28;20254;-74
2023/03/23 07:15:07;;;;;;;15.55;8.75;;;;;;;9.98;nan;-24095.75;5011447;28;20212;-74
2023/03/23 07:17:33;;;;;;;18.60;8.63;;;;;;;10.60;nan;-24113.25;5011865;28;20204;-74
2023/03/23 07:19:58;;;;;;;16.60;8.60;;;;;;;10.79;nan;-24118.47;5012919;28;20175;-74
2023/03/23 07:22:23;;;;;;;16.83;8.43;;;;;;;10.84;nan;-24119.75;5027100;28;20222;-73
2023/03/23 07:24:49;;;;;;;18.40;9.20;;;;;;;11.20;nan;-24129.88;5012340;28;20543;-73
2023/03/23 07:27:15;;;;;;;12.52;7.45;;;;;;;11.03;nan;-24125.09;5012112;28;20242;-74
2023/03/23 07:29:40;;;;;;;15.70;7.57;;;;;;;10.99;nan;-24123.97;5012208;28;20206;-73
2023/03/23 07:32:11;;;;;;;14.55;7.05;;;;;;;10.87;nan;-24120.59;5011590;28;20222;-73
2023/03/23 07:34:37;;;;;;;9.93;5.82;;;;;;;11.11;nan;-24127.34;5012397;28;20251;-74
2023/03/23 07:37:03;;;;;;;11.05;5.68;;;;;;;11.19;nan;-24129.47;5027237;28;20218;-75
2023/03/23 07:39:28;;;;;;;12.60;6.47;;;;;;;10.94;nan;-24122.69;5010722;28;20191;-74
2023/03/23 07:41:54;;;;;;;12.68;6.80;;;;;;;11.69;nan;-24143.41;5026791;28;20180;-75
2023/03/23 07:44:19;;;;;;;11.68;5.82;;;;;;;11.49;nan;-24137.94;5026967;28;20172;-74
2023/03/23 07:46:45;;;;;;;9.95;5.43;;;;;;;11.59;nan;-24140.59;5011432;28;20720;-74
2023/03/23 07:49:11;;;;;;;11.52;6.10;;;;;;;12.19;nan;-24157.38;5027670;28;20210;-74
2023/03/23 07:51:39;;;;;;;7.50;5.20;;;;;;;12.28;nan;-24159.91;5029766;28;20675;-74
2023/03/23 07:54:07;;;;;;;8.25;4.72;;;;;;;11.70;nan;-24143.69;5011955;28;20177;-76
2023/03/23 07:56:33;;;;;;;11.93;5.28;;;;;;;12.34;nan;-24161.59;5011526;28;20219;-75
2023/03/23 07:58:59;;;;;;;11.60;5.68;;;;;;;12.64;nan;-24169.88;5012279;28;20223;-73
2023/03/23 08:01:25;;;;;;;8.70;5.43;;;;;;;12.97;nan;-24179.03;5027597;28;20230;-75
2023/03/23 08:03:51;;;;;;;13.45;6.28;;;;;;;13.37;nan;-24190.25;5011846;28;20172;-75
2023/03/23 08:06:16;;;;;;;9.15;5.53;;;;;;;13.27;nan;-24187.47;5012661;28;20210;-75
2023/03/23 08:08:41;;;;;;;9.82;5.43;;;;;;;13.37;nan;-24190.13;5011677;28;20176;-74
2023/03/23 08:11:07;;;;;;;13.73;6.47;;;;;;;13.53;nan;-24194.75;5027021;28;20211;-74
2023/03/23 08:13:35;;;;;;;10.48;5.63;;;;;;;13.67;nan;-24198.69;5027012;28;20209;-76
2023/03/23 08:16:03;;;;;;;9.05;4.72;;;;;;;13.41;nan;-24191.38;5011708;28;20203;-75
2023/03/23 08:18:31;;;;;;;10.57;5.57;;;;;;;13.78;nan;-24201.63;5011805;28;20172;-75
2023/03/23 08:20:57;;;;;;;12.48;5.78;;;;;;;13.75;nan;-24200.66;5010435;28;20184;-76
2023/03/23 08:23:22;;;;;;;8.82;5.43;;;;;;;14.37;nan;-24218.06;5011390;28;20627;-75
2023/03/23 08:25:48;;;;;;;11.82;5.80;;;;;;;14.56;nan;-24223.41;5011336;28;20176;-74
2023/03/23 08:28:14;;;;;;;7.68;4.90;;;;;;;14.56;nan;-24223.41;5010061;28;20183;-75
2023/03/23 08:30:40;;;;;;;8.48;5.35;;;;;;;14.81;nan;-24230.25;5010019;28;20184;-75
2023/03/23 08:33:06;;;;;;;9.52;4.97;;;;;;;15.03;nan;-24236.44;5011514;28;20186;-74
2023/03/23 08:35:32;;;;;;;7.90;4.88;;;;;;;15.24;nan;-24242.03;5011217;28;20181;-74
2023/03/23 08:37:58;;;;;;;8.35;4.22;;;;;;;15.43;nan;-24247.50;5011086;28;20176;-75
2023/03/23 08:40:24;;;;;;;8.30;4.18;;;;;;;15.54;nan;-24250.31;5010829;28;20176;-75
2023/03/23 08:42:51;;;;;;;10.65;4.85;;;;;;;15.51;nan;-24249.59;5011542;28;20168;-74
2023/03/23 08:45:21;;;;;;;9.95;4.60;;;;;;;15.84;nan;-24258.84;4998855;28;20196;-74
2023/03/23 08:47:51;;;;;;;7.65;4.68;;;;;;;15.60;nan;-24252.13;5003850;28;20593;-75
2023/03/23 08:50:19;;;;;;;7.25;3.90;;;;;;;16.23;nan;-24269.47;5005122;28;20274;-75
2023/03/23 08:52:45;;;;;;;7.82;4.70;;;;;;;15.94;nan;-24261.34;5016215;28;20180;-75
2023/03/23 08:55:11;;;;;;;8.50;4.95;;;;;;;16.22;nan;-24269.19;5015179;28;20238;-75
2023/03/23 08:57:37;;;;;;;12.93;4.95;;;;;;;16.25;nan;-24270.16;5014761;28;20239;-75
2023/03/23 09:00:17;;;;;;;7.90;4.32;;;;;;;16.08;nan;-24265.28;5014943;28;20168;-75
2023/03/23 09:02:48;;;;;;;6.13;3.95;;;;;;;16.24;nan;-24269.75;5015128;28;20215;-74
2023/03/23 09:05:15;;;;;;;9.45;4.85;;;;;;;16.23;nan;-24269.47;5014687;28;20172;-74
2023/03/23 09:07:43;;;;;;;10.50;5.55;;;;;;;16.67;nan;-24281.63;5015204;28;20258;-74
2023/03/23 09:10:09;;;;;;;10.02;5.07;;;;;;;16.82;nan;-24285.69;5011646;28;20242;-75
2023/03/23 09:12:35;;;;;;;8.75;4.63;;;;;;;16.88;nan;-24287.34;5013102;28;20184;-75
2023/03/23 09:15:08;;;;;;;8.05;4.18;;;;;;;17.08;nan;-24293.09;5014406;28;20176;-73
2023/03/23 09:17:53;;;;;;;8.30;4.65;;;;;;;16.90;nan;-24288.06;5014552;28;20196;-76
2023/03/23 09:20:21;;;;;;;12.60;4.88;;;;;;;17.38;nan;-24301.19;5014580;28;20234;-75
2023/03/23 09:22:50;;;;;;;9.88;4.47;;;;;;;17.32;nan;-24299.63;5014558;28;20843;-74
2023/03/23 09:25:20;;;;;;;8.00;4.20;;;;;;;17.52;nan;-24305.22;5014858;28;20204;-75
2023/03/23 09:27:48;;;;;;;7.65;4.57;;;;;;;17.79;nan;-24312.47;5014315;28;20168;-75
2023/03/23 09:30:18;;;;;;;6.88;3.75;;;;;;;18.17;nan;-24323.06;5014280;28;20249;-76
2023/03/23 09:32:45;;;;;;;5.55;3.67;;;;;;;17.84;nan;-24313.88;5014010;28;20160;-75
2023/03/23 09:35:15;;;;;;;6.45;3.78;;;;;;;17.67;nan;-24309.41;5014516;28;20230;-75
2023/03/23 09:37:43;;;;;;;6.93;3.25;;;;;;;16.74;nan;-24283.59;5013029;28;20196;-75
2023/03/23 09:40:18;;;;;;;4.63;2.67;;;;;;;17.52;nan;-24305.22;5013482;28;20176;-76
2023/03/23 09:43:05;;;;;;;3.95;2.63;;;;;;;18.01;nan;-24318.75;5005262;28;20187;-75
2023/03/23 09:46:09;;;;;;;4.80;3.00;;;;;;;16.69;nan;-24282.19;5014169;28;20637;-76
2023/03/23 09:48:40;;;;;;;5.97;3.55;;;;;;;17.01;nan;-24291.00;5013357;28;20203;-75
2023/03/23 09:51:14;;;;;;;5.63;3.47;;;;;;;16.97;nan;-24289.88;5013838;28;20184;-75
2023/03/23 09:53:44;;;;;;;5.25;3.08;;;;;;;16.83;nan;-24285.97;5016409;28;20254;-76
2023/03/23 09:56:14;;;;;;;4.40;3.00;;;;;;;16.27;nan;-24270.59;5014052;28;20766;-75
2023/03/23 09:58:53;;;;;;;5.57;2.75;;;;;;;16.74;nan;-24283.59;5006030;28;20595;-75
2023/03/23 10:01:39;;;;;;;7.03;3.45;;;;;;;16.66;nan;-24281.50;5014039;28;20215;-75
2023/03/23 10:04:27;;;;;;;7.55;3.92;;;;;;;17.03;nan;-24291.69;5013755;28;20262;-75
2023/03/23 10:06:59;;;;;;;5.32;3.42;;;;;;;16.83;nan;-24285.97;5014084;28;20195;-75
2023/03/23 10:09:24;;;;;;;7.40;3.83;;;;;;;17.07;nan;-24292.66;5012914;28;20214;-75
2023/03/23 10:12:11;;;;;;;6.25;3.22;;;;;;;16.68;nan;-24282.03;5013836;28;20172;-75
2023/03/23 10:14:51;;;;;;;5.25;3.00;;;;;;;16.08;nan;-24265.41;5013273;28;20187;-75
2023/03/23 10:17:17;;;;;;;5.38;3.53;;;;;;;16.52;nan;-24277.44;5013634;28;20203;-75
2023/03/23 10:19:47;;;;;;;7.50;3.90;;;;;;;16.11;nan;-24266.09;5013419;28;20654;-75
2023/03/23 10:22:17;;;;;;;6.75;3.78;;;;;;;16.31;nan;-24271.69;5013642;28;20241;-75
2023/03/23 10:24:42;;;;;;;7.85;4.03;;;;;;;16.78;nan;-24284.84;5013752;28;20610;-76
2023/03/23 10:27:33;;;;;;;5.00;3.15;;;;;;;17.10;nan;-24293.63;5013270;28;20208;-75
2023/03/23 10:30:11;;;;;;;5.05;2.92;;;;;;;16.94;nan;-24289.03;5013477;28;20272;-75
2023/03/23 10:33:09;;;;;;;6.65;3.03;;;;;;;16.77;nan;-24284.56;5013402;28;20239;-75
2023/03/23 10:35:44;;;;;;;5.13;2.53;;;;;;;16.91;nan;-24288.34;5018743;28;20671;-75
2023/03/23 10:38:17;;;;;;;5.18;2.97;;;;;;;17.53;nan;-24305.50;5013168;28;20163;-75
2023/03/23 10:40:56;;;;;;;4.30;2.47;;;;;;;18.29;nan;-24326.41;5027989;28;20172;-75
2023/03/23 10:43:23;;;;;;;3.40;2.33;;;;;;;18.64;nan;-24335.91;5012944;28;20657;-75
2023/03/23 10:45:55;;;;;;;4.72;2.97;;;;;;;18.81;nan;-24340.63;5012798;28;20203;-75
2023/03/23 10:48:28;;;;;;;5.40;2.97;;;;;;;19.11;nan;-24348.97;5013356;28;20199;-74
2023/03/23 10:50:58;;;;;;;4.50;2.88;;;;;;;19.31;nan;-24354.41;5012739;28;20153;-75
2023/03/23 10:53:28;;;;;;;5.18;2.60;;;;;;;19.83;nan;-24368.72;5014949;28;20184;-75
2023/03/23 10:55:54;;;;;;;4.07;2.80;;;;;;;20.18;nan;-24378.31;5012791;28;20192;-75
2023/03/23 10:58:29;;;;;;;4.63;3.17;;;;;;;20.79;nan;-24395.13;5012734;28;20277;-75
2023/03/23 11:00:55;;;;;;;4.05;3.05;;;;;;;20.76;nan;-24394.28;5013004;28;20653;-75
2023/03/23 11:03:35;;;;;;;2.70;1.77;;;;;;;20.24;nan;-24380.00;5012326;28;20216;-73
2023/03/23 11:06:03;;;;;;;5.72;2.75;;;;;;;19.05;nan;-24347.19;5011301;28;20655;-75
2023/03/23 11:08:35;;;;;;;3.72;2.35;;;;;;;18.01;nan;-24318.63;5012140;28;20187;-73
2023/03/23 11:11:16;;;;;;;3.95;2.70;;;;;;;17.74;nan;-24311.22;5012103;28;20180;-73
2023/03/23 11:13:44;;;;;;;3.42;2.28;;;;;;;17.52;nan;-24305.22;5012330;28;20183;-75
2023/03/23 11:16:21;;;;;;;4.68;2.63;;;;;;;17.36;nan;-24300.75;5012002;28;20200;-74
2023/03/23 11:18:47;;;;;;;5.43;3.17;;;;;;;17.19;nan;-24296.16;5012047;28;20182;-75
2023/03/23 11:21:14;;;;;;;6.60;2.50;;;;;;;17.61;nan;-24307.75;5011585;28;20605;-74
2023/03/23 11:23:43;;;;;;;4.43;2.75;;;;;;;17.84;nan;-24313.88;5010257;28;20176;-75
2023/03/23 11:26:12;;;;;;;4.85;2.30;;;;;;;17.15;nan;-24295.03;5011238;28;20643;-74
2023/03/23 11:28:46;;;;;;;5.63;2.60;;;;;;;16.95;nan;-24289.44;5011831;28;20179;-74
2023/03/23 11:31:12;;;;;;;4.30;2.50;;;;;;;16.90;nan;-24288.06;5012353;28;20172;-74
2023/03/23 11:33:55;;;;;;;2.80;2.25;;;;;;;17.10;nan;-24293.63;5009701;28;20230;-74
2023/03/23 11:36:29;;;;;;;4.05;2.90;;;;;;;17.47;nan;-24303.69;5011668;28;20285;-75
2023/03/23 11:38:58;;;;;;;4.20;2.40;;;;;;;17.06;nan;-24292.53;5010276;28;20187;-73
2023/03/23 11:41:28;;;;;;;5.65;3.05;;;;;;;16.90;nan;-24288.06;5011596;28;20175;-74
2023/03/23 11:43:53;;;;;;;4.82;2.47;;;;;;;17.20;nan;-24296.28;5011853;28;20647;-74
2023/03/23 11:46:35;;;;;;;4.43;2.25;;;;;;;17.19;nan;-24296.00;5011873;28;20176;-74
2023/03/23 11:49:09;;;;;;;3.10;2.42;;;;;;;16.76;nan;-24284.28;5012538;28;20168;-75
2023/03/23 11:51:51;;;;;;;5.30;2.92;;;;;;;16.78;nan;-24284.84;5012254;28;20643;-76
2023/03/23 11:54:33;;;;;;;3.78;2.30;;;;;;;16.71;nan;-24282.88;5015372;28;20214;-74